Time;durP1;ratioP1;P1;durP2;ratioP2;P2;SDS_P1;SDS_P2;PMS_P1;PMS_P2;Temp;Humidity;BMP_temperature;BMP_pressure;BME280_temperature;BME280_humidity;BME280_pressure;Samples;Min_cycle;Max_cycle;Signal;HPM_P1;HPM_P2
2022/03/25 00:00:25;;;;;;;158.70;91.10;;;;;;;1.74;66.25;99985.10;104959;1268;61189;-71
2022/03/25 00:03:08;;;;;;;154.60;88.80;;;;;;;1.71;66.23;99986.02;104735;1268;61345;-70
2022/03/25 00:05:34;;;;;;;165.80;95.00;;;;;;;1.66;66.36;99984.53;104946;1268;75480;-69
2022/03/25 00:08:02;;;;;;;174.30;97.90;;;;;;;1.60;66.28;99985.32;104953;1268;69428;-69
2022/03/25 00:10:28;;;;;;;157.30;95.20;;;;;;;1.54;66.63;99983.98;104989;1268;73634;-69
2022/03/25 00:12:55;;;;;;;165.00;98.40;;;;;;;1.48;66.75;99979.16;104950;1268;61281;-70
2022/03/25 00:15:22;;;;;;;196.50;112.00;;;;;;;1.45;66.87;99977.64;105012;1268;61223;-68
2022/03/25 00:17:48;;;;;;;180.80;102.70;;;;;;;1.40;67.05;99978.06;104729;1268;76553;-70
2022/03/25 00:20:15;;;;;;;184.10;106.20;;;;;;;1.35;67.38;99978.13;104743;1268;61284;-70
2022/03/25 00:22:41;;;;;;;185.50;105.90;;;;;;;1.31;67.60;99973.80;105009;1269;61362;-70
2022/03/25 00:25:09;;;;;;;182.10;103.10;;;;;;;1.29;67.54;99968.59;105045;1267;61310;-70
2022/03/25 00:27:35;;;;;;;190.60;108.20;;;;;;;1.27;67.72;99967.55;105664;1268;61644;-71
2022/03/25 00:30:03;;;;;;;201.50;112.40;;;;;;;1.26;67.89;99970.20;105598;1268;75924;-70
2022/03/25 00:32:30;;;;;;;185.40;109.20;;;;;;;1.23;68.00;99969.36;105197;1268;69868;-69
2022/03/25 00:34:56;;;;;;;203.60;112.60;;;;;;;1.23;68.17;99970.41;105267;1268;61186;-70
2022/03/25 00:37:24;;;;;;;182.60;106.10;;;;;;;1.22;68.09;99972.70;104994;1268;61367;-70
2022/03/25 00:39:52;;;;;;;178.50;104.20;;;;;;;1.19;68.11;99974.31;105001;1268;62101;-71
2022/03/25 00:42:19;;;;;;;175.70;103.30;;;;;;;1.15;68.18;99971.23;104791;1269;74387;-70
2022/03/25 00:44:47;;;;;;;192.40;106.30;;;;;;;1.12;68.25;99970.57;105048;1268;70670;-72
2022/03/25 00:47:14;;;;;;;183.90;105.50;;;;;;;1.07;68.37;99972.02;105086;1268;74494;-71
2022/03/25 00:49:40;;;;;;;179.10;103.40;;;;;;;1.04;68.57;99971.72;105143;1268;61396;-69
2022/03/25 00:52:07;;;;;;;189.20;105.70;;;;;;;1.01;68.52;99965.45;104913;1268;62174;-72
2022/03/25 00:54:33;;;;;;;183.70;106.00;;;;;;;0.95;68.67;99964.46;104690;1268;381853;-72
2022/03/25 00:57:02;;;;;;;178.60;103.30;;;;;;;0.90;68.89;99962.60;105136;1268;61380;-72
2022/03/25 00:59:29;;;;;;;191.50;110.20;;;;;;;0.85;68.84;99963.89;104909;1268;71486;-71
2022/03/25 01:01:56;;;;;;;191.20;105.00;;;;;;;0.83;69.06;99963.91;104733;1268;61545;-70
2022/03/25 01:04:22;;;;;;;192.10;106.10;;;;;;;0.80;69.38;99960.45;104934;1268;61333;-72
2022/03/25 01:06:49;;;;;;;182.80;107.00;;;;;;;0.77;69.44;99958.90;105027;1268;75493;-69
2022/03/25 01:09:15;;;;;;;176.50;104.90;;;;;;;0.70;69.61;99958.30;104938;1268;61272;-70
2022/03/25 01:11:43;;;;;;;187.10;106.70;;;;;;;0.64;69.74;99957.48;104919;1268;61279;-69
2022/03/25 01:14:09;;;;;;;183.50;103.50;;;;;;;0.57;69.87;99955.45;104903;1268;61409;-71
2022/03/25 01:16:36;;;;;;;184.80;102.50;;;;;;;0.53;70.10;99958.31;105303;1268;61243;-69
2022/03/25 01:19:03;;;;;;;183.50;102.80;;;;;;;0.51;70.33;99954.84;104977;1268;74112;-72
2022/03/25 01:21:30;;;;;;;188.50;102.00;;;;;;;0.50;70.49;99954.48;105245;1268;69498;-69
2022/03/25 01:23:57;;;;;;;185.30;102.60;;;;;;;0.52;70.56;99960.59;104929;1268;73662;-69
2022/03/25 01:26:24;;;;;;;201.70;106.00;;;;;;;0.51;70.67;99962.34;104970;1268;61465;-69
2022/03/25 01:28:52;;;;;;;188.10;106.30;;;;;;;0.48;70.88;99962.20;105090;1268;61252;-69
2022/03/25 01:31:20;;;;;;;185.30;104.00;;;;;;;0.44;71.06;99960.33;105069;1268;76073;-71
2022/03/25 01:33:46;;;;;;;173.50;98.00;;;;;;;0.38;71.06;99958.10;105284;1268;69244;-69
2022/03/25 01:36:12;;;;;;;173.30;99.30;;;;;;;0.33;71.32;99956.23;104951;1268;61268;-71
2022/03/25 01:38:39;;;;;;;170.30;94.30;;;;;;;0.28;71.36;99956.64;104899;1268;61564;-71
2022/03/25 01:41:07;;;;;;;174.60;99.60;;;;;;;0.22;71.53;99954.42;104915;1268;61151;-74
2022/03/25 01:43:34;;;;;;;174.10;98.50;;;;;;;0.18;72.07;99956.03;104964;1268;76877;-70
2022/03/25 01:46:01;;;;;;;171.30;100.30;;;;;;;0.14;72.30;99954.67;105305;1268;70119;-72
2022/03/25 01:48:28;;;;;;;163.70;97.80;;;;;;;0.11;72.45;99955.93;105223;1268;74273;-72
2022/03/25 01:50:54;;;;;;;174.90;99.70;;;;;;;0.10;72.87;99957.33;105311;1268;62690;-73
2022/03/25 01:53:24;;;;;;;180.10;100.90;;;;;;;0.11;73.08;99958.90;104954;1268;61340;-70
2022/03/25 01:56:00;;;;;;;172.90;99.80;;;;;;;0.10;73.27;99960.82;104651;1271;76526;-71
2022/03/25 01:58:29;;;;;;;178.60;101.30;;;;;;;0.11;73.65;99955.05;104898;1268;69109;-71
2022/03/25 02:00:57;;;;;;;187.20;102.50;;;;;;;0.14;73.61;99956.06;104969;1269;73366;-70
2022/03/25 02:03:24;;;;;;;186.50;103.70;;;;;;;0.16;73.67;99953.79;105164;1267;61340;-71
2022/03/25 02:05:51;;;;;;;193.50;109.40;;;;;;;0.16;73.92;99957.80;104960;1268;61965;-70
2022/03/25 02:08:18;;;;;;;193.70;108.60;;;;;;;0.14;73.86;99960.08;105038;1268;75615;-69
2022/03/25 02:10:45;;;;;;;193.60;110.10;;;;;;;0.14;73.89;99962.37;104935;1268;69136;-71
2022/03/25 02:13:12;;;;;;;194.30;107.60;;;;;;;0.13;73.86;99964.64;105339;1268;74440;-70
2022/03/25 02:15:41;;;;;;;187.60;107.30;;;;;;;0.10;73.78;99965.02;104917;1268;61239;-71
2022/03/25 02:18:10;;;;;;;183.10;105.70;;;;;;;0.06;73.75;99964.17;104943;1268;61341;-70
2022/03/25 02:20:37;;;;;;;181.30;103.70;;;;;;;0.02;73.87;99962.98;105220;1268;75987;-69
2022/03/25 02:23:05;;;;;;;183.10;98.80;;;;;;;-0.00;74.05;99966.33;104987;1268;69218;-70
2022/03/25 02:25:31;;;;;;;173.50;99.20;;;;;;;-0.04;74.13;99966.54;105074;1268;74387;-70
2022/03/25 02:27:59;;;;;;;184.90;102.20;;;;;;;-0.11;74.21;99963.27;104922;1268;61303;-70
2022/03/25 02:30:27;;;;;;;184.90;102.80;;;;;;;-0.17;74.33;99966.48;105097;1268;61239;-69
2022/03/25 02:33:01;;;;;;;187.80;106.60;;;;;;;-0.23;74.50;99968.24;104697;1268;75147;-70
2022/03/25 02:35:45;;;;;;;196.70;103.30;;;;;;;-0.28;74.51;99968.64;105020;1268;69152;-69
2022/03/25 02:38:17;;;;;;;165.10;95.70;;;;;;;-0.32;74.66;99967.96;104949;1268;73467;-69
2022/03/25 02:40:45;;;;;;;166.40;97.60;;;;;;;-0.34;74.84;99969.02;105129;1268;61399;-70
2022/03/25 02:43:13;;;;;;;171.20;98.00;;;;;;;-0.35;75.09;99966.77;105004;1268;61313;-70
2022/03/25 02:45:39;;;;;;;163.80;94.20;;;;;;;-0.35;75.28;99967.81;104978;1268;74125;-70
2022/03/25 02:48:07;;;;;;;171.60;97.10;;;;;;;-0.35;75.61;99969.39;104166;1268;1003011;-69
2022/03/25 02:50:34;;;;;;;179.90;97.20;;;;;;;-0.39;75.62;99970.11;104949;1268;74547;-72
2022/03/25 02:53:01;;;;;;;169.90;98.30;;;;;;;-0.40;75.77;99979.55;104938;1268;61319;-70
2022/03/25 02:55:27;;;;;;;181.80;99.10;;;;;;;-0.42;75.86;99979.39;104969;1267;61275;-70
2022/03/25 02:57:54;;;;;;;247.10;113.10;;;;;;;-0.43;76.20;99980.45;104875;1268;61301;-71
2022/03/25 03:00:43;;;;;;;403.00;163.70;;;;;;;-0.45;76.31;99978.36;104932;1268;69605;-69
2022/03/25 03:03:09;;;;;;;332.20;137.50;;;;;;;-0.47;76.65;99979.60;104993;1268;73324;-69
2022/03/25 03:05:36;;;;;;;423.00;168.40;;;;;;;-0.48;76.74;99974.71;104962;1268;61372;-69
2022/03/25 03:08:02;;;;;;;360.00;153.80;;;;;;;-0.49;76.71;99977.50;104958;1268;61278;-71
2022/03/25 03:10:29;;;;;;;302.30;137.20;;;;;;;-0.48;76.82;99977.14;104223;1268;1002696;-71
2022/03/25 03:12:56;;;;;;;196.00;104.00;;;;;;;-0.51;76.64;99977.87;105241;1268;69239;-71
2022/03/25 03:15:23;;;;;;;197.10;104.60;;;;;;;-0.55;76.75;99973.36;104988;1268;73585;-69
2022/03/25 03:17:49;;;;;;;191.80;101.60;;;;;;;-0.58;76.96;99974.77;104936;1268;61294;-70
2022/03/25 03:20:18;;;;;;;172.50;95.50;;;;;;;-0.61;77.14;99979.34;104981;1268;61249;-71
2022/03/25 03:22:45;;;;;;;170.10;92.90;;;;;;;-0.64;77.22;99979.34;104986;1268;76379;-72
2022/03/25 03:25:11;;;;;;;172.80;94.00;;;;;;;-0.67;77.19;99980.23;104950;1268;70372;-70
2022/03/25 03:27:38;;;;;;;162.80;91.00;;;;;;;-0.71;77.34;99977.46;104958;1268;61287;-72
2022/03/25 03:30:08;;;;;;;164.30;93.60;;;;;;;-0.73;77.51;99981.84;104810;1268;61285;-71
2022/03/25 03:32:35;;;;;;;179.50;97.00;;;;;;;-0.75;77.96;99982.55;105087;1268;61378;-71
2022/03/25 03:35:03;;;;;;;155.40;96.20;;;;;;;-0.74;78.13;99982.38;104853;1268;75312;-69
2022/03/25 03:37:30;;;;;;;165.20;97.50;;;;;;;-0.73;78.22;99983.94;104958;1268;68398;-70
2022/03/25 03:39:58;;;;;;;183.30;108.70;;;;;;;-0.73;78.30;99987.42;104950;1267;73511;-70
2022/03/25 03:42:25;;;;;;;174.10;106.20;;;;;;;-0.74;78.46;99982.89;105089;1268;61160;-70
2022/03/25 03:44:51;;;;;;;200.60;120.70;;;;;;;-0.75;78.45;99986.02;104955;1268;61342;-70
2022/03/25 03:47:18;;;;;;;197.00;122.10;;;;;;;-0.74;78.86;99986.38;104930;1268;61450;-72
2022/03/25 03:49:45;;;;;;;211.60;133.10;;;;;;;-0.72;79.02;99987.77;104979;1268;70375;-72
2022/03/25 03:52:11;;;;;;;228.30;138.00;;;;;;;-0.70;79.24;99984.10;104749;1268;61282;-71
2022/03/25 03:54:38;;;;;;;213.70;130.00;;;;;;;-0.69;79.33;99980.77;104902;1268;61337;-71
2022/03/25 03:57:07;;;;;;;198.00;120.80;;;;;;;-0.70;79.38;99981.66;104956;1268;62095;-71
2022/03/25 03:59:34;;;;;;;203.20;123.20;;;;;;;-0.72;79.29;99976.95;105036;1268;75862;-71
2022/03/25 04:02:00;;;;;;;208.30;128.50;;;;;;;-0.74;79.36;99982.38;105195;1268;69605;-71
2022/03/25 04:04:27;;;;;;;210.30;125.90;;;;;;;-0.75;79.66;99980.98;104676;1268;61297;-69
2022/03/25 04:06:53;;;;;;;213.00;129.60;;;;;;;-0.75;79.91;99978.52;105007;1268;61361;-71
2022/03/25 04:09:20;;;;;;;206.70;128.10;;;;;;;-0.75;79.99;99982.55;104943;1268;61374;-70
2022/03/25 04:11:46;;;;;;;207.40;123.90;;;;;;;-0.75;80.22;99980.80;104918;1268;61375;-68
2022/03/25 04:14:12;;;;;;;202.20;125.30;;;;;;;-0.74;80.29;99986.38;104921;1268;61343;-69
2022/03/25 04:16:39;;;;;;;198.70;129.70;;;;;;;-0.77;80.50;99983.42;104941;1268;61367;-70
2022/03/25 04:19:06;;;;;;;219.20;135.50;;;;;;;-0.76;80.90;99988.67;104906;1268;61409;-69
2022/03/25 04:21:32;;;;;;;211.60;129.60;;;;;;;-0.72;81.21;99987.42;104929;1268;61250;-69
2022/03/25 04:23:59;;;;;;;211.20;132.10;;;;;;;-0.71;81.02;99987.58;104965;1268;61359;-70
2022/03/25 04:26:25;;;;;;;203.00;127.70;;;;;;;-0.72;81.03;99984.27;104942;1268;61381;-69
2022/03/25 04:28:52;;;;;;;211.20;131.50;;;;;;;-0.73;81.00;99983.94;104683;1269;61363;-71
2022/03/25 04:31:18;;;;;;;210.90;129.00;;;;;;;-0.74;81.03;99987.42;104956;1268;61390;-70
2022/03/25 04:33:45;;;;;;;203.90;128.40;;;;;;;-0.74;81.20;99983.77;104936;1268;62228;-70
2022/03/25 04:36:13;;;;;;;201.10;128.40;;;;;;;-0.75;81.13;99983.23;104930;1268;61420;-70
2022/03/25 04:38:41;;;;;;;199.20;122.90;;;;;;;-0.76;81.36;99988.15;105141;1268;70398;-71
2022/03/25 04:41:10;;;;;;;194.90;123.70;;;;;;;-0.75;81.34;99989.52;104650;1268;74441;-69
2022/03/25 04:43:38;;;;;;;215.20;132.60;;;;;;;-0.75;81.28;99989.71;104945;1268;61782;-70
2022/03/25 04:46:05;;;;;;;215.30;130.70;;;;;;;-0.75;81.45;99989.17;105384;1268;61278;-69
2022/03/25 04:48:33;;;;;;;202.00;122.50;;;;;;;-0.72;81.35;99989.34;104873;1269;73609;-71
2022/03/25 04:50:59;;;;;;;203.00;127.60;;;;;;;-0.69;81.39;99991.06;104968;1268;70399;-70
2022/03/25 04:53:26;;;;;;;212.90;126.90;;;;;;;-0.67;81.39;99994.38;105032;1268;73576;-70
2022/03/25 04:55:53;;;;;;;239.70;142.40;;;;;;;-0.66;81.41;99995.05;105236;1268;61286;-70
2022/03/25 04:58:20;;;;;;;256.40;148.10;;;;;;;-0.63;81.42;99993.99;105178;1268;61280;-70
2022/03/25 05:00:47;;;;;;;230.90;138.40;;;;;;;-0.49;81.37;99998.63;104960;1268;77298;-71
2022/03/25 05:03:14;;;;;;;232.50;135.00;;;;;;;-0.30;81.14;100000.77;105137;1268;70479;-72
2022/03/25 05:05:42;;;;;;;230.30;136.20;;;;;;;-0.09;80.84;100000.81;104308;1268;1003030;-70
2022/03/25 05:08:09;;;;;;;206.90;131.30;;;;;;;0.11;80.63;99999.60;105275;1268;61322;-72
2022/03/25 05:10:37;;;;;;;217.40;130.20;;;;;;;0.32;80.22;100005.89;105035;1268;61640;-72
2022/03/25 05:13:04;;;;;;;210.00;131.80;;;;;;;0.52;79.92;100006.05;105250;1271;75241;-69
2022/03/25 05:15:31;;;;;;;202.80;125.40;;;;;;;0.71;79.48;100007.26;105112;1268;69392;-70
2022/03/25 05:17:57;;;;;;;200.80;126.70;;;;;;;0.90;79.17;100007.23;104214;1268;1003731;-73
2022/03/25 05:20:24;;;;;;;208.00;128.30;;;;;;;1.10;78.90;100008.56;104733;1268;61405;-70
2022/03/25 05:22:51;;;;;;;199.70;124.80;;;;;;;1.33;78.57;100010.02;104934;1268;61255;-70
2022/03/25 05:25:18;;;;;;;189.60;123.60;;;;;;;1.53;78.19;100016.58;104968;1268;75120;-70
2022/03/25 05:27:49;;;;;;;197.80;127.00;;;;;;;1.75;77.91;100015.39;104995;1268;70139;-70
2022/03/25 05:30:20;;;;;;;184.80;121.60;;;;;;;2.04;77.55;100017.05;104974;1268;74359;-72
2022/03/25 05:32:46;;;;;;;187.00;125.20;;;;;;;2.26;77.23;100018.09;105259;1268;61161;-70
2022/03/25 05:35:13;;;;;;;188.50;126.30;;;;;;;2.51;76.96;100015.20;105287;1268;61919;-70
2022/03/25 05:37:40;;;;;;;188.40;119.50;;;;;;;2.78;76.32;100018.58;104975;1268;76513;-70
2022/03/25 05:40:09;;;;;;;185.40;122.70;;;;;;;2.98;75.61;100017.34;104970;1268;70363;-71
2022/03/25 05:42:37;;;;;;;184.50;123.00;;;;;;;3.14;75.13;100019.98;105021;1268;73527;-72
2022/03/25 05:45:06;;;;;;;185.40;120.50;;;;;;;3.33;74.77;100016.63;105357;1268;61298;-70
2022/03/25 05:47:34;;;;;;;183.80;120.90;;;;;;;3.50;74.54;100011.70;104979;1268;62023;-72
2022/03/25 05:50:01;;;;;;;176.20;111.90;;;;;;;3.68;74.15;100014.27;105042;1268;75487;-71
2022/03/25 05:52:28;;;;;;;169.40;112.20;;;;;;;3.87;73.82;100016.48;105005;1271;69590;-70
2022/03/25 05:54:54;;;;;;;171.50;110.60;;;;;;;4.04;73.43;100013.81;105250;1268;61301;-70
2022/03/25 05:57:21;;;;;;;159.00;104.40;;;;;;;4.19;73.01;100015.72;105281;1268;61271;-70
2022/03/25 05:59:48;;;;;;;154.70;104.60;;;;;;;4.27;72.55;100018.34;104846;1271;61260;-71
2022/03/25 06:02:15;;;;;;;141.30;98.20;;;;;;;4.17;72.61;100019.11;105287;1268;61260;-70
2022/03/25 06:04:42;;;;;;;145.30;100.20;;;;;;;4.08;72.70;100017.39;105003;1268;69375;-70
2022/03/25 06:07:10;;;;;;;148.10;101.40;;;;;;;4.07;72.77;100022.16;104928;1268;74620;-70
2022/03/25 06:09:36;;;;;;;143.20;97.80;;;;;;;4.07;72.74;100025.15;104981;1268;61354;-69
2022/03/25 06:12:03;;;;;;;145.40;98.60;;;;;;;4.10;72.70;100028.60;105126;1268;62382;-70
2022/03/25 06:14:30;;;;;;;142.90;96.70;;;;;;;4.15;72.65;100027.08;104924;1271;76284;-71
2022/03/25 06:16:56;;;;;;;140.40;97.40;;;;;;;4.28;72.45;100030.29;105051;1268;61382;-70
2022/03/25 06:19:23;;;;;;;137.20;94.30;;;;;;;4.46;71.96;100029.82;105072;1268;61363;-71
2022/03/25 06:21:49;;;;;;;141.70;97.60;;;;;;;4.70;71.38;100032.02;105047;1268;61240;-71
2022/03/25 06:24:17;;;;;;;145.40;97.70;;;;;;;4.89;70.94;100034.53;105153;1268;61289;-71
2022/03/25 06:26:44;;;;;;;143.30;97.60;;;;;;;4.97;70.66;100032.35;105118;1268;76208;-70
2022/03/25 06:29:10;;;;;;;136.60;93.40;;;;;;;4.97;70.70;100032.35;104011;1268;1003063;-73
2022/03/25 06:31:37;;;;;;;134.70;90.20;;;;;;;4.98;70.79;100031.45;104994;1268;1002501;-70
2022/03/25 06:34:03;;;;;;;126.30;84.90;;;;;;;4.99;70.63;100033.17;105519;1268;61339;-71
2022/03/25 06:36:30;;;;;;;120.30;78.70;;;;;;;5.04;70.40;100035.69;105201;1268;61373;-69
2022/03/25 06:38:57;;;;;;;118.80;77.50;;;;;;;5.08;70.08;100036.99;105258;1268;61261;-71
2022/03/25 06:41:23;;;;;;;113.40;74.60;;;;;;;5.10;69.91;100039.92;105212;1268;61476;-70
2022/03/25 06:43:50;;;;;;;103.70;70.30;;;;;;;5.15;69.91;100038.03;105051;1268;61376;-70
2022/03/25 06:46:18;;;;;;;112.00;71.30;;;;;;;5.20;69.49;100034.70;105064;1268;61171;-71
2022/03/25 06:48:45;;;;;;;101.60;67.50;;;;;;;5.27;69.40;100036.45;105100;1268;62162;-70
2022/03/25 06:51:12;;;;;;;101.10;65.60;;;;;;;5.35;69.41;100036.39;104903;1268;75265;-73
2022/03/25 06:53:39;;;;;;;95.80;60.10;;;;;;;5.42;69.23;100038.13;105020;1268;70433;-71
2022/03/25 06:56:06;;;;;;;86.40;58.00;;;;;;;5.50;68.90;100042.33;104974;1268;73432;-72
2022/03/25 06:58:34;;;;;;;88.00;55.70;;;;;;;5.58;68.58;100041.38;104915;1268;61307;-70
2022/03/25 07:01:01;;;;;;;83.50;54.00;;;;;;;5.66;68.15;100040.80;105035;1266;62018;-71
2022/03/25 07:03:28;;;;;;;79.90;53.60;;;;;;;5.75;68.02;100041.41;105085;1268;75246;-71
2022/03/25 07:05:59;;;;;;;80.40;53.60;;;;;;;5.84;67.41;100043.39;104784;1268;69417;-71
2022/03/25 07:08:29;;;;;;;83.20;53.70;;;;;;;5.90;66.77;100042.16;105111;1268;73359;-73
2022/03/25 07:10:56;;;;;;;81.30;55.40;;;;;;;5.98;66.70;100042.66;105289;1268;61374;-70
2022/03/25 07:13:23;;;;;;;82.60;55.70;;;;;;;6.06;66.25;100042.91;104622;1268;61529;-70
2022/03/25 07:15:49;;;;;;;90.90;56.60;;;;;;;6.16;66.21;100046.84;104886;1269;73559;-71
2022/03/25 07:18:16;;;;;;;81.60;55.00;;;;;;;6.28;65.98;100043.11;104930;1268;68247;-70
2022/03/25 07:20:42;;;;;;;88.40;60.20;;;;;;;6.40;66.01;100051.02;104944;1268;74411;-70
2022/03/25 07:23:09;;;;;;;82.30;58.10;;;;;;;6.53;65.59;100047.58;104863;1268;61216;-72
2022/03/25 07:25:35;;;;;;;93.90;59.70;;;;;;;6.66;65.63;100052.61;105278;1268;61374;-72
2022/03/25 07:28:02;;;;;;;86.50;57.90;;;;;;;6.78;64.83;100050.60;105307;1268;61264;-70
2022/03/25 07:30:29;;;;;;;88.20;60.50;;;;;;;6.88;64.45;100052.20;105213;1268;70449;-69
2022/03/25 07:32:55;;;;;;;83.30;57.70;;;;;;;6.96;64.07;100055.63;105238;1268;61295;-70
2022/03/25 07:35:22;;;;;;;86.60;60.70;;;;;;;7.07;63.97;100057.04;104888;1271;61407;-69
2022/03/25 07:37:48;;;;;;;89.90;58.70;;;;;;;7.19;63.56;100056.27;104959;1268;61210;-69
2022/03/25 07:40:15;;;;;;;81.90;56.60;;;;;;;7.30;63.33;100058.70;104954;1268;61124;-69
2022/03/25 07:42:44;;;;;;;84.30;56.90;;;;;;;7.43;63.36;100060.33;104934;1268;69697;-69
2022/03/25 07:45:13;;;;;;;84.10;57.90;;;;;;;7.56;62.86;100057.02;104969;1268;71397;-70
2022/03/25 07:47:42;;;;;;;83.70;56.60;;;;;;;7.69;62.53;100061.48;105075;1268;61387;-71
2022/03/25 07:50:11;;;;;;;81.00;55.90;;;;;;;7.76;61.98;100058.55;105425;1268;62129;-70
2022/03/25 07:52:39;;;;;;;84.70;55.90;;;;;;;7.89;62.39;100054.52;105180;1268;75438;-70
2022/03/25 07:55:06;;;;;;;77.90;54.30;;;;;;;8.02;62.18;100053.64;105009;1268;70230;-72
2022/03/25 07:57:34;;;;;;;76.30;51.90;;;;;;;8.17;62.15;100054.84;105022;1268;74401;-69
2022/03/25 08:00:03;;;;;;;70.90;48.30;;;;;;;8.32;61.66;100049.26;104944;1268;61372;-69
2022/03/25 08:02:31;;;;;;;71.30;49.90;;;;;;;8.42;61.04;100050.29;105056;1268;61542;-72
2022/03/25 08:04:57;;;;;;;73.50;48.50;;;;;;;8.53;60.27;100053.76;105014;1268;75700;-70
2022/03/25 08:07:24;;;;;;;68.70;46.40;;;;;;;8.58;59.94;100051.24;104934;1268;61508;-70
2022/03/25 08:09:51;;;;;;;63.60;45.10;;;;;;;8.68;59.95;100050.09;105135;1268;73440;-70
2022/03/25 08:12:17;;;;;;;63.50;43.90;;;;;;;8.83;59.48;100055.34;104931;1268;61285;-70
2022/03/25 08:14:43;;;;;;;64.20;43.80;;;;;;;8.97;59.09;100053.64;104946;1269;61382;-71
2022/03/25 08:17:11;;;;;;;64.90;43.40;;;;;;;9.09;58.77;100056.14;104925;1268;61385;-69
2022/03/25 08:19:37;;;;;;;62.70;43.80;;;;;;;9.17;57.99;100055.05;104957;1268;69280;-71
2022/03/25 08:22:03;;;;;;;65.00;43.20;;;;;;;9.25;57.65;100058.29;104948;1268;61367;-70
2022/03/25 08:30:00;;;;;;;61.30;44.20;;;;;;;9.62;57.12;100058.34;104966;1268;75464;-70
2022/03/25 08:32:27;;;;;;;68.90;44.60;;;;;;;9.71;56.00;100056.54;104993;1271;70371;-71
2022/03/25 08:34:53;;;;;;;60.20;39.10;;;;;;;9.80;55.99;100052.02;104967;1267;61124;-71
2022/03/25 08:37:20;;;;;;;60.50;43.70;;;;;;;9.89;55.57;100054.29;105306;1269;61236;-71
2022/03/25 08:39:46;;;;;;;57.60;40.60;;;;;;;9.99;55.29;100054.88;105397;1269;61227;-70
2022/03/25 08:42:13;;;;;;;61.40;41.60;;;;;;;10.08;54.85;100055.35;105046;1268;61358;-70
2022/03/25 08:44:40;;;;;;;54.20;40.00;;;;;;;10.16;54.66;100055.66;105047;1269;70412;-70
2022/03/25 08:47:07;;;;;;;53.20;36.90;;;;;;;10.26;54.38;100052.70;105118;1268;73923;-71
2022/03/25 08:49:34;;;;;;;53.30;37.40;;;;;;;10.36;53.94;100047.97;105235;1268;61259;-71
2022/03/25 08:52:01;;;;;;;54.50;38.00;;;;;;;10.48;53.89;100047.05;104864;1268;61145;-71
2022/03/25 08:54:28;;;;;;;58.00;40.90;;;;;;;10.60;53.59;100046.76;104997;1268;73642;-71
2022/03/25 08:56:54;;;;;;;61.20;42.50;;;;;;;10.68;53.08;100043.02;105099;1271;70540;-71
2022/03/25 08:59:20;;;;;;;55.70;39.50;;;;;;;10.75;52.67;100041.55;105313;1268;61374;-71
2022/03/25 09:01:47;;;;;;;49.80;36.10;;;;;;;10.84;52.39;100042.39;105044;1268;61254;-71
2022/03/25 09:04:13;;;;;;;53.30;35.60;;;;;;;10.91;51.77;100037.91;104854;1268;61296;-70
2022/03/25 09:06:39;;;;;;;48.60;35.10;;;;;;;11.00;51.62;100037.95;105010;1268;61369;-71
2022/03/25 09:09:06;;;;;;;51.30;34.90;;;;;;;11.12;51.32;100032.92;105324;1268;61394;-71
2022/03/25 09:11:32;;;;;;;48.90;34.80;;;;;;;11.23;50.78;100039.42;104910;1268;61393;-71
2022/03/25 09:13:59;;;;;;;42.20;29.50;;;;;;;11.33;49.27;100034.28;104901;1269;61386;-71
2022/03/25 09:16:25;;;;;;;41.90;28.60;;;;;;;11.38;48.30;100034.91;105264;1268;61476;-71
2022/03/25 09:18:52;;;;;;;42.80;30.50;;;;;;;11.45;47.88;100035.42;104900;1268;61501;-73
2022/03/25 09:21:19;;;;;;;45.40;31.90;;;;;;;11.54;47.80;100032.11;104888;1268;61364;-70
2022/03/25 09:23:45;;;;;;;45.30;31.90;;;;;;;11.59;46.89;100029.16;104864;1269;61404;-69
2022/03/25 09:26:11;;;;;;;53.30;32.00;;;;;;;11.67;47.25;100026.21;104859;1268;61313;-69
2022/03/25 09:28:38;;;;;;;45.70;32.20;;;;;;;11.80;47.04;100021.42;104897;1268;61386;-70
2022/03/25 09:31:05;;;;;;;44.60;31.50;;;;;;;11.90;46.42;100013.77;104899;1268;61333;-70
2022/03/25 09:33:31;;;;;;;41.00;27.20;;;;;;;11.99;46.23;100014.35;104858;1268;61307;-69
2022/03/25 09:35:58;;;;;;;44.00;31.80;;;;;;;12.12;46.09;100011.45;104882;1268;61371;-70
2022/03/25 09:38:25;;;;;;;40.50;27.40;;;;;;;12.24;45.90;100010.02;105003;1268;61332;-73
2022/03/25 09:40:53;;;;;;;30.00;23.10;;;;;;;12.36;44.55;100010.95;105333;1268;61281;-71
2022/03/25 09:43:20;;;;;;;31.50;22.20;;;;;;;12.43;43.20;100009.84;105355;1268;75447;-71
2022/03/25 09:45:46;;;;;;;31.00;23.40;;;;;;;12.47;43.16;100007.44;105337;1268;69420;-70
2022/03/25 09:48:13;;;;;;;29.40;21.90;;;;;;;12.56;42.99;100007.48;104915;1268;61284;-70
2022/03/25 09:50:40;;;;;;;29.70;22.00;;;;;;;12.66;42.48;100009.05;104938;1271;61375;-71
2022/03/25 09:53:08;;;;;;;30.00;22.20;;;;;;;12.72;42.00;100011.84;104907;1268;61304;-73
2022/03/25 09:55:40;;;;;;;29.60;22.70;;;;;;;12.84;42.67;100004.56;104935;1268;75335;-70
2022/03/25 09:58:07;;;;;;;31.00;22.00;;;;;;;12.98;42.46;100003.71;105538;1268;70366;-71
2022/03/25 10:00:34;;;;;;;31.80;23.70;;;;;;;13.10;42.06;100007.98;105120;1268;73123;-69
2022/03/25 10:03:01;;;;;;;27.50;20.20;;;;;;;13.20;42.01;100006.13;105074;1268;61268;-69
2022/03/25 10:05:27;;;;;;;29.10;21.30;;;;;;;13.28;40.78;100003.70;104922;1268;61275;-70
2022/03/25 10:07:57;;;;;;;26.80;21.20;;;;;;;13.29;40.30;100001.84;104891;1268;61343;-71
2022/03/25 10:10:26;;;;;;;;;;;;;;;13.38;41.15;100001.11;104688;1271;70390;-71
2022/03/25 10:13:02;;;;;;;26.80;18.80;;;;;;;13.54;41.59;99998.00;104939;1268;73417;-71
2022/03/25 10:15:31;;;;;;;30.50;21.10;;;;;;;13.72;41.31;99998.45;104830;1272;61237;-72
2022/03/25 10:18:01;;;;;;;27.60;18.10;;;;;;;13.79;40.38;99999.96;105140;1268;61147;-70
2022/03/25 10:20:30;;;;;;;27.00;20.70;;;;;;;13.81;40.03;99996.60;104953;1268;76399;-70
2022/03/25 10:23:11;;;;;;;31.40;22.30;;;;;;;13.79;39.62;99994.39;105093;1268;70375;-69
2022/03/25 10:25:55;;;;;;;40.20;22.00;;;;;;;13.73;38.92;99995.15;105043;1268;73636;-69
2022/03/25 10:28:28;;;;;;;29.60;20.50;;;;;;;13.73;39.19;99991.20;104933;1268;61405;-69
2022/03/25 10:31:01;;;;;;;26.90;19.60;;;;;;;13.80;39.21;99991.45;105097;1268;61380;-69
2022/03/25 10:33:59;;;;;;;24.80;18.00;;;;;;;13.93;40.04;99994.27;104970;1268;74991;-69
2022/03/25 10:36:27;;;;;;;26.20;19.20;;;;;;;14.12;40.03;99988.00;104457;1278;69196;-70
2022/03/25 10:38:58;;;;;;;26.00;17.70;;;;;;;14.22;39.27;99988.91;104380;1278;74522;-69
2022/03/25 10:41:27;;;;;;;;;;;;;;;14.22;38.72;99986.81;104610;1278;61397;-70
2022/03/25 10:43:59;;;;;;;22.00;16.50;;;;;;;14.17;38.72;99987.48;104333;1278;61477;-69
2022/03/25 10:46:27;;;;;;;23.70;17.40;;;;;;;14.16;38.82;99986.31;104539;1277;75441;-69
2022/03/25 10:48:54;;;;;;;24.40;17.60;;;;;;;14.20;38.76;99984.39;104723;1278;69139;-70
2022/03/25 10:51:21;;;;;;;27.60;17.10;;;;;;;14.22;38.42;99981.98;104783;1277;74186;-71
2022/03/25 10:54:07;;;;;;;21.60;16.40;;;;;;;14.25;37.93;99983.33;104429;1277;61336;-70
2022/03/25 10:56:41;;;;;;;21.00;16.30;;;;;;;14.29;38.49;99980.94;104521;1278;61218;-70
2022/03/25 10:59:20;;;;;;;21.80;14.50;;;;;;;14.40;38.95;99971.61;104490;1278;76354;-70
2022/03/25 11:01:48;;;;;;;23.50;16.50;;;;;;;14.52;38.55;99972.48;104398;1277;70382;-69
2022/03/25 11:04:15;;;;;;;21.10;15.40;;;;;;;14.52;38.24;99975.17;104398;1280;71932;-69
2022/03/25 11:06:43;;;;;;;23.40;18.00;;;;;;;14.56;38.39;99973.52;104397;1276;61277;-72
2022/03/25 11:09:10;;;;;;;24.20;18.50;;;;;;;14.65;38.52;99967.14;104876;1277;62059;-71